createdAt,value
2023-09-16T00:00:09.816Z,20.90
2023-09-16T00:02:37.365Z,20.80
2023-09-16T00:05:04.537Z,20.80
2023-09-16T00:07:32.664Z,20.90
2023-09-16T00:09:59.605Z,20.90
2023-09-16T00:12:26.593Z,20.90
2023-09-16T00:14:53.526Z,20.90
2023-09-16T00:17:20.714Z,20.80
2023-09-16T00:19:47.600Z,20.80
2023-09-16T00:22:14.900Z,20.80
2023-09-16T00:24:42.049Z,20.70
2023-09-16T00:27:09.050Z,20.70
2023-09-16T00:29:38.745Z,20.70
2023-09-16T00:32:06.028Z,20.70
2023-09-16T00:34:33.433Z,20.60
2023-09-16T00:37:02.771Z,20.60
2023-09-16T00:39:29.683Z,20.60
2023-09-16T00:41:56.815Z,20.60
2023-09-16T00:44:23.678Z,20.60
2023-09-16T00:46:51.000Z,20.60
2023-09-16T00:49:18.000Z,20.60
2023-09-16T00:51:46.457Z,20.60
2023-09-16T00:54:14.237Z,20.50
2023-09-16T00:56:41.182Z,20.50
2023-09-16T00:59:08.096Z,20.50
2023-09-16T01:01:38.571Z,20.40
2023-09-16T01:04:06.311Z,20.40
2023-09-16T01:06:33.578Z,20.20
2023-09-16T01:09:00.459Z,20.40
2023-09-16T01:11:27.795Z,20.40
2023-09-16T01:13:54.783Z,20.40
2023-09-16T01:16:26.264Z,20.30
2023-09-16T01:18:57.676Z,20.30
2023-09-16T01:21:24.807Z,20.40
2023-09-16T01:24:11.548Z,20.30
2023-09-16T01:26:39.906Z,20.30
2023-09-16T01:29:06.770Z,20.30
2023-09-16T01:31:33.697Z,20.30
2023-09-16T01:34:02.157Z,20.20
2023-09-16T01:36:30.927Z,20.20
2023-09-16T01:38:59.330Z,20.20
2023-09-16T01:41:26.542Z,20.20
2023-09-16T01:43:53.670Z,20.20
2023-09-16T01:46:20.593Z,20.20
2023-09-16T01:48:48.946Z,20.20
2023-09-16T01:54:10.350Z,20.20
2023-09-16T01:56:37.302Z,20.00
2023-09-16T01:59:04.879Z,20.30
2023-09-16T02:01:31.913Z,20.30
2023-09-16T02:03:58.799Z,20.30
2023-09-16T02:06:26.052Z,20.20
2023-09-16T02:08:53.113Z,20.20
2023-09-16T02:11:20.452Z,20.20
2023-09-16T02:13:47.867Z,20.20
2023-09-16T02:16:15.123Z,20.20
2023-09-16T02:18:42.302Z,20.20
2023-09-16T02:21:09.503Z,20.20
2023-09-16T02:26:32.341Z,20.20
2023-09-16T02:28:59.466Z,20.20
2023-09-16T02:31:29.794Z,20.20
2023-09-16T02:33:57.538Z,20.20
2023-09-16T02:36:24.614Z,20.20
2023-09-16T02:38:53.276Z,20.20
2023-09-16T02:41:21.187Z,20.20
2023-09-16T02:43:49.435Z,20.10
2023-09-16T02:46:17.733Z,20.20
2023-09-16T02:48:45.276Z,20.20
2023-09-16T02:51:12.611Z,20.20
2023-09-16T02:53:40.007Z,20.10
2023-09-16T02:56:09.740Z,20.10
2023-09-16T02:58:37.153Z,20.10
2023-09-16T03:01:11.370Z,20.10
2023-09-16T03:03:41.788Z,20.10
2023-09-16T03:06:08.985Z,20.10
2023-09-16T03:08:36.148Z,20.00
2023-09-16T03:11:06.569Z,19.90
2023-09-16T03:13:35.809Z,19.90
2023-09-16T03:16:13.318Z,19.90
2023-09-16T03:18:43.469Z,19.80
2023-09-16T03:21:10.545Z,19.80
2023-09-16T03:23:37.666Z,19.80
2023-09-16T03:26:05.273Z,19.80
2023-09-16T03:28:32.256Z,19.80
2023-09-16T03:30:59.176Z,19.80
2023-09-16T03:33:26.070Z,19.80
2023-09-16T03:35:52.902Z,19.70
2023-09-16T03:38:20.198Z,19.80
2023-09-16T03:40:47.608Z,19.70
2023-09-16T03:43:15.642Z,19.60
2023-09-16T03:45:42.616Z,19.60
2023-09-16T03:48:10.154Z,19.60
2023-09-16T03:50:37.317Z,19.60
2023-09-16T03:53:11.143Z,19.50
2023-09-16T03:55:39.300Z,19.50
2023-09-16T03:58:06.907Z,19.50
2023-09-16T04:00:33.914Z,19.50
2023-09-16T04:03:00.894Z,19.50
2023-09-16T04:05:28.613Z,19.40
2023-09-16T04:07:55.429Z,19.40
2023-09-16T04:10:22.542Z,19.40
2023-09-16T04:12:50.951Z,19.40
2023-09-16T04:15:18.113Z,19.40
2023-09-16T04:17:45.189Z,19.30
2023-09-16T04:20:12.269Z,19.30
2023-09-16T04:22:39.688Z,19.30
2023-09-16T04:25:06.769Z,19.30
2023-09-16T04:27:33.799Z,19.20
2023-09-16T04:30:00.838Z,19.20
2023-09-16T04:32:27.831Z,19.30
2023-09-16T04:34:57.204Z,19.30
2023-09-16T04:37:24.247Z,19.20
2023-09-16T04:39:52.433Z,19.30
2023-09-16T04:42:19.748Z,19.30
2023-09-16T04:44:49.989Z,19.30
2023-09-16T04:47:20.400Z,19.30
2023-09-16T04:49:47.553Z,19.30
2023-09-16T04:52:16.058Z,19.30
2023-09-16T04:54:43.216Z,19.30
2023-09-16T04:57:10.027Z,19.30
2023-09-16T04:59:37.793Z,19.40
2023-09-16T05:02:06.717Z,19.40
2023-09-16T05:04:33.690Z,19.40
2023-09-16T05:07:00.604Z,19.40
2023-09-16T05:09:27.796Z,19.40
2023-09-16T05:11:54.807Z,19.30
2023-09-16T05:14:22.922Z,19.30
2023-09-16T05:16:49.837Z,19.30
2023-09-16T05:19:17.369Z,19.30
2023-09-16T05:21:44.371Z,19.40
2023-09-16T05:24:11.786Z,19.30
2023-09-16T05:26:39.181Z,19.30
2023-09-16T05:29:06.630Z,19.40
2023-09-16T05:31:34.462Z,19.40
2023-09-16T05:34:03.274Z,19.40
2023-09-16T05:36:30.333Z,19.40
2023-09-16T05:38:58.308Z,19.30
2023-09-16T05:41:25.227Z,19.40
2023-09-16T05:43:52.016Z,19.40
2023-09-16T05:46:20.225Z,19.40
2023-09-16T05:48:47.470Z,19.50
2023-09-16T05:51:14.823Z,19.50
2023-09-16T05:53:43.245Z,19.50
2023-09-16T05:56:10.393Z,19.50
2023-09-16T05:58:44.341Z,19.60
2023-09-16T06:01:11.819Z,19.50
2023-09-16T06:03:39.248Z,19.50
2023-09-16T06:06:06.419Z,19.60
2023-09-16T06:08:33.654Z,19.60
2023-09-16T06:11:00.729Z,19.60
2023-09-16T06:13:27.744Z,19.60
2023-09-16T06:15:55.049Z,19.60
2023-09-16T06:18:24.787Z,19.70
2023-09-16T06:20:52.159Z,19.60
2023-09-16T06:23:19.344Z,19.50
2023-09-16T06:25:48.868Z,19.60
2023-09-16T06:28:16.410Z,19.60
2023-09-16T06:30:43.364Z,19.60
2023-09-16T06:33:11.522Z,19.60
2023-09-16T06:35:38.339Z,19.60
2023-09-16T06:38:05.335Z,19.60
2023-09-16T06:40:32.337Z,19.60
2023-09-16T06:42:59.361Z,19.70
2023-09-16T06:45:29.260Z,19.70
2023-09-16T06:47:59.061Z,19.70
2023-09-16T06:50:26.296Z,19.60
2023-09-16T06:52:55.560Z,19.70
2023-09-16T06:55:22.603Z,19.70
2023-09-16T06:57:49.784Z,19.70
2023-09-16T07:00:16.902Z,19.70
2023-09-16T07:02:43.867Z,19.70
2023-09-16T07:05:11.592Z,19.60
2023-09-16T07:07:38.784Z,19.60
2023-09-16T07:10:06.125Z,19.60
2023-09-16T07:12:35.745Z,19.60
2023-09-16T07:15:02.943Z,19.40
2023-09-16T07:17:29.975Z,19.60
2023-09-16T07:19:56.992Z,19.70
2023-09-16T07:22:23.840Z,19.70
2023-09-16T07:24:50.707Z,19.70
2023-09-16T07:27:18.608Z,19.80
2023-09-16T07:29:45.640Z,19.80
2023-09-16T07:32:12.499Z,19.80
2023-09-16T07:34:39.757Z,19.90
2023-09-16T07:37:06.779Z,19.90
2023-09-16T07:39:33.770Z,20.00
2023-09-16T07:42:01.063Z,20.10
2023-09-16T07:44:31.019Z,20.10
2023-09-16T07:46:58.309Z,20.20
2023-09-16T07:49:25.449Z,20.30
2023-09-16T07:51:52.633Z,19.90
2023-09-16T07:54:19.814Z,20.30
2023-09-16T07:56:46.666Z,20.40
2023-09-16T07:59:19.194Z,20.40
2023-09-16T08:01:46.617Z,20.50
2023-09-16T08:04:13.779Z,20.60
2023-09-16T08:06:41.096Z,20.60
2023-09-16T08:09:07.956Z,20.60
2023-09-16T08:11:35.040Z,20.70
2023-09-16T08:14:04.582Z,20.40
2023-09-16T08:16:31.574Z,20.80
2023-09-16T08:18:58.934Z,20.90
2023-09-16T08:21:26.828Z,21.00
2023-09-16T08:23:54.268Z,21.00
2023-09-16T08:26:21.409Z,21.00
2023-09-16T08:28:49.022Z,21.00
2023-09-16T08:31:16.326Z,21.10
2023-09-16T08:33:43.232Z,21.10
2023-09-16T08:36:10.138Z,21.20
2023-09-16T08:38:37.144Z,21.40
2023-09-16T08:41:22.795Z,21.20
2023-09-16T08:43:51.277Z,21.30
2023-09-16T08:46:21.339Z,21.40
2023-09-16T08:48:50.544Z,21.40
2023-09-16T08:51:18.934Z,21.50
2023-09-16T08:53:46.627Z,21.50
2023-09-16T08:56:13.990Z,21.60
2023-09-16T08:58:41.127Z,21.60
2023-09-16T09:01:08.527Z,21.70
2023-09-16T09:03:35.738Z,21.70
2023-09-16T09:06:04.856Z,21.80
2023-09-16T09:08:34.056Z,21.90
2023-09-16T09:11:01.181Z,22.00
2023-09-16T09:13:28.860Z,22.00
2023-09-16T09:15:59.829Z,22.00
2023-09-16T09:18:28.938Z,22.00
2023-09-16T09:21:00.994Z,22.10
2023-09-16T09:23:28.370Z,22.20
2023-09-16T09:25:59.092Z,22.20
2023-09-16T09:28:27.620Z,22.30
2023-09-16T09:30:55.124Z,22.40
2023-09-16T09:33:22.570Z,22.40
2023-09-16T09:35:49.407Z,22.50
2023-09-16T09:38:16.752Z,22.60
2023-09-16T09:40:59.909Z,22.60
2023-09-16T09:43:29.472Z,22.70
2023-09-16T09:45:56.442Z,22.80
2023-09-16T09:48:23.297Z,22.90
2023-09-16T09:50:50.765Z,22.90
2023-09-16T09:53:18.037Z,23.00
2023-09-16T09:55:47.774Z,23.00
2023-09-16T09:58:14.846Z,23.10
2023-09-16T10:00:49.001Z,23.20
2023-09-16T10:03:16.098Z,23.20
2023-09-16T10:05:43.023Z,23.20
2023-09-16T10:08:11.169Z,23.30
2023-09-16T10:10:38.151Z,23.40
2023-09-16T10:13:05.162Z,23.50
2023-09-16T10:15:33.048Z,23.50
2023-09-16T10:18:00.311Z,23.60
2023-09-16T10:20:30.819Z,23.60
2023-09-16T10:22:58.840Z,23.50
2023-09-16T10:25:30.187Z,23.60
2023-09-16T10:28:05.724Z,23.60
2023-09-16T10:30:34.017Z,23.60
2023-09-16T10:33:02.310Z,23.60
2023-09-16T10:35:29.995Z,23.60
2023-09-16T10:37:57.555Z,23.60
2023-09-16T10:40:24.943Z,23.60
2023-09-16T10:42:52.933Z,23.60
2023-09-16T10:45:20.337Z,23.60
2023-09-16T10:47:47.882Z,23.70
2023-09-16T10:50:14.779Z,23.70
2023-09-16T10:52:43.209Z,23.70
2023-09-16T10:55:31.624Z,23.70
2023-09-16T10:58:21.522Z,23.80
2023-09-16T11:00:57.660Z,23.80
2023-09-16T11:03:29.744Z,24.00
2023-09-16T11:05:58.634Z,24.10
2023-09-16T11:08:25.774Z,24.20
2023-09-16T11:10:54.222Z,24.30
2023-09-16T11:13:22.018Z,24.40
2023-09-16T11:15:49.124Z,24.50
2023-09-16T11:18:18.931Z,24.60
2023-09-16T11:20:47.036Z,24.70
2023-09-16T11:23:14.054Z,24.80
2023-09-16T11:25:44.373Z,24.90
2023-09-16T11:28:20.517Z,25.00
2023-09-16T11:30:55.621Z,25.10
2023-09-16T11:33:31.465Z,25.20
2023-09-16T11:36:08.454Z,25.30
2023-09-16T11:38:35.433Z,25.40
2023-09-16T11:41:17.040Z,25.60
2023-09-16T11:43:43.972Z,25.60
2023-09-16T11:46:12.445Z,25.80
2023-09-16T11:48:53.105Z,25.90
2023-09-16T11:51:22.914Z,26.10
2023-09-16T11:53:50.529Z,26.20
2023-09-16T11:56:17.647Z,26.20
2023-09-16T11:58:45.628Z,26.40
2023-09-16T12:01:13.416Z,26.50
2023-09-16T12:03:43.437Z,26.60
2023-09-16T12:06:12.896Z,26.70
2023-09-16T12:08:41.380Z,26.50
2023-09-16T12:13:49.503Z,27.00
2023-09-16T12:16:17.242Z,27.10
2023-09-16T12:18:44.573Z,27.30
2023-09-16T12:21:11.717Z,27.40
2023-09-16T12:23:40.004Z,27.50
2023-09-16T12:31:34.474Z,27.70
2023-09-16T12:34:01.915Z,27.80
2023-09-16T13:06:22.105Z,28.60
2023-09-16T13:08:51.617Z,28.70
2023-09-16T13:13:59.744Z,28.80
2023-09-16T13:16:27.641Z,28.70
2023-09-16T13:18:55.042Z,28.70
2023-09-16T13:21:29.165Z,28.70
2023-09-16T13:23:56.189Z,28.70
2023-09-16T13:26:22.919Z,28.90
2023-09-16T13:28:54.008Z,29.10
2023-09-16T13:31:21.781Z,29.00
2023-09-16T13:34:03.203Z,29.10
2023-09-16T13:36:32.181Z,29.20
2023-09-16T13:38:59.537Z,29.40
2023-09-16T13:41:26.621Z,29.50
2023-09-16T13:43:53.688Z,29.60
2023-09-16T13:46:20.764Z,29.70
2023-09-16T13:48:49.193Z,29.80
2023-09-16T13:51:16.441Z,29.90
2023-09-16T13:53:43.434Z,30.00
2023-09-16T13:56:11.503Z,30.10
2023-09-16T13:58:38.825Z,30.20
2023-09-16T14:01:05.892Z,30.10
2023-09-16T14:03:33.086Z,30.10
2023-09-16T14:06:00.344Z,30.00
2023-09-16T14:08:27.341Z,30.00
2023-09-16T14:10:54.365Z,30.00
2023-09-16T14:13:21.564Z,30.10
2023-09-16T14:15:48.692Z,30.10
2023-09-16T14:18:15.929Z,30.10
2023-09-16T14:20:42.814Z,30.40
2023-09-16T14:23:09.635Z,30.40
2023-09-16T14:25:36.627Z,30.50
2023-09-16T14:28:05.153Z,30.70
2023-09-16T14:30:34.543Z,30.70
2023-09-16T14:33:02.439Z,30.80
2023-09-16T14:35:33.304Z,31.00
2023-09-16T14:38:00.619Z,31.10
2023-09-16T14:40:27.732Z,31.20
2023-09-16T14:42:57.617Z,31.20
2023-09-16T14:45:24.569Z,31.20
2023-09-16T14:47:51.382Z,31.40
2023-09-16T14:50:18.555Z,31.40
2023-09-16T14:52:45.551Z,31.50
2023-09-16T14:55:12.713Z,31.50
2023-09-16T14:57:39.792Z,31.50
2023-09-16T15:00:09.350Z,31.50
2023-09-16T15:02:36.957Z,31.50
2023-09-16T15:05:03.941Z,31.60
2023-09-16T15:07:30.923Z,31.60
2023-09-16T15:10:00.853Z,31.60
2023-09-16T15:12:27.908Z,31.60
2023-09-16T15:14:54.652Z,31.70
2023-09-16T15:17:21.477Z,31.70
2023-09-16T15:19:48.241Z,31.60
2023-09-16T15:22:19.609Z,31.60
2023-09-16T15:24:49.445Z,31.70
2023-09-16T15:27:19.221Z,31.70
2023-09-16T15:29:46.320Z,31.70
2023-09-16T15:32:30.294Z,31.70
2023-09-16T15:35:04.087Z,31.70
2023-09-16T15:37:33.778Z,31.60
2023-09-16T15:40:10.078Z,31.60
2023-09-16T15:42:51.875Z,31.50
2023-09-16T15:45:18.958Z,31.50
2023-09-16T15:47:45.944Z,31.50
2023-09-16T15:50:19.119Z,31.50
2023-09-16T15:52:48.241Z,31.40
2023-09-16T15:55:20.986Z,31.00
2023-09-16T15:57:47.877Z,31.30
2023-09-16T16:00:18.097Z,31.30
2023-09-16T16:02:46.707Z,31.30
2023-09-16T16:05:13.608Z,31.20
2023-09-16T16:07:40.483Z,31.10
2023-09-16T16:10:07.731Z,31.00
2023-09-16T16:12:34.617Z,30.80
2023-09-16T16:15:01.416Z,30.60
2023-09-16T16:17:28.362Z,30.40
2023-09-16T16:19:55.180Z,30.20
2023-09-16T16:22:22.069Z,30.10
2023-09-16T16:24:48.947Z,29.80
2023-09-16T16:27:15.849Z,29.80
2023-09-16T16:29:43.022Z,29.60
2023-09-16T16:32:09.849Z,29.50
2023-09-16T16:34:36.746Z,29.30
2023-09-16T16:37:03.777Z,29.10
2023-09-16T16:39:30.516Z,29.00
2023-09-16T16:41:57.446Z,28.50
2023-09-16T16:44:24.191Z,28.70
2023-09-16T16:46:54.079Z,28.60
2023-09-16T16:49:23.555Z,28.50
2023-09-16T16:51:50.375Z,28.40
2023-09-16T16:54:17.206Z,28.20
2023-09-16T16:56:43.995Z,28.20
2023-09-16T16:59:10.820Z,28.10
2023-09-16T17:01:37.815Z,28.00
2023-09-16T17:04:04.976Z,27.90
2023-09-16T17:06:31.848Z,27.80
2023-09-16T17:09:00.399Z,27.80
2023-09-16T17:11:28.477Z,27.70
2023-09-16T17:13:55.598Z,27.60
2023-09-16T17:16:22.620Z,27.50
2023-09-16T17:18:51.309Z,27.40
2023-09-16T17:21:18.090Z,27.40
2023-09-16T17:23:46.760Z,27.30
2023-09-16T17:26:14.310Z,27.30
2023-09-16T17:28:41.215Z,27.20
2023-09-16T17:31:09.207Z,27.10
2023-09-16T17:33:36.155Z,27.10
2023-09-16T17:36:03.267Z,27.00
2023-09-16T17:38:31.833Z,27.00
2023-09-16T17:40:58.648Z,26.90
2023-09-16T17:43:25.510Z,26.90
2023-09-16T17:45:52.365Z,26.90
2023-09-16T17:48:22.196Z,26.80
2023-09-16T17:50:51.382Z,26.70
2023-09-16T17:53:18.186Z,26.70
2023-09-16T17:55:45.575Z,26.70
2023-09-16T17:58:12.488Z,26.60
2023-09-16T18:00:39.343Z,26.70
2023-09-16T18:03:06.523Z,26.60
2023-09-16T18:05:33.359Z,26.50
2023-09-16T18:08:00.236Z,26.50
2023-09-16T18:10:27.068Z,26.40
2023-09-16T18:12:53.894Z,26.70
2023-09-16T18:15:20.691Z,26.40
2023-09-16T18:17:48.254Z,26.40
2023-09-16T18:20:15.459Z,26.30
2023-09-16T18:22:42.308Z,26.30
2023-09-16T18:25:10.267Z,26.20
2023-09-16T18:27:37.973Z,26.20
2023-09-16T18:30:05.588Z,26.20
2023-09-16T18:32:32.464Z,26.10
2023-09-16T18:34:59.337Z,26.10
2023-09-16T18:37:26.300Z,26.10
2023-09-16T18:39:53.103Z,26.00
2023-09-16T18:42:19.945Z,26.00
2023-09-16T18:44:46.726Z,26.00
2023-09-16T18:47:16.029Z,25.90
2023-09-16T18:49:42.921Z,25.90
2023-09-16T18:52:09.910Z,25.80
2023-09-16T18:54:37.819Z,25.80
2023-09-16T18:57:05.521Z,25.80
2023-09-16T18:59:32.546Z,25.70
2023-09-16T19:01:59.708Z,25.70
2023-09-16T19:04:26.821Z,25.60
2023-09-16T19:06:53.813Z,25.60
2023-09-16T19:09:20.625Z,25.60
2023-09-16T19:11:48.152Z,25.50
2023-09-16T19:14:15.139Z,25.50
2023-09-16T19:16:43.635Z,25.40
2023-09-16T19:19:11.038Z,25.40
2023-09-16T19:21:37.975Z,25.40
2023-09-16T19:24:05.039Z,25.30
2023-09-16T19:26:31.881Z,25.30
2023-09-16T19:28:59.183Z,25.20
2023-09-16T19:31:26.217Z,25.20
2023-09-16T19:33:53.172Z,25.10
2023-09-16T19:36:20.975Z,25.10
2023-09-16T19:38:48.077Z,25.10
2023-09-16T19:41:14.948Z,25.00
2023-09-16T19:43:42.168Z,24.90
2023-09-16T19:46:09.291Z,24.90
2023-09-16T19:48:36.635Z,24.80
2023-09-16T19:51:04.794Z,24.70
2023-09-16T19:53:35.323Z,24.60
2023-09-16T19:56:02.238Z,24.60
2023-09-16T19:58:29.189Z,24.50
2023-09-16T20:00:59.405Z,24.50
2023-09-16T20:03:26.587Z,24.50
2023-09-16T20:05:53.567Z,24.50
2023-09-16T20:08:20.468Z,24.50
2023-09-16T20:10:47.903Z,24.40
2023-09-16T20:13:14.881Z,24.40
2023-09-16T20:15:41.656Z,24.40
2023-09-16T20:18:08.544Z,24.40
2023-09-16T20:20:35.400Z,24.40
2023-09-16T20:23:02.750Z,24.40
2023-09-16T20:25:34.585Z,24.40
2023-09-16T20:28:02.426Z,24.30
2023-09-16T20:30:29.745Z,24.40
2023-09-16T20:32:56.730Z,24.30
2023-09-16T20:35:23.623Z,24.20
2023-09-16T20:37:52.629Z,24.30
2023-09-16T20:40:19.501Z,24.20
2023-09-16T20:42:46.509Z,24.10
2023-09-16T20:45:13.658Z,24.10
2023-09-16T20:47:40.629Z,24.10
2023-09-16T20:50:10.753Z,24.00
2023-09-16T20:52:37.984Z,23.90
2023-09-16T20:55:06.219Z,23.90
2023-09-16T20:57:33.305Z,23.90
2023-09-16T21:00:00.466Z,23.80
2023-09-16T21:02:29.029Z,23.90
2023-09-16T21:04:56.286Z,23.80
2023-09-16T21:07:23.705Z,23.90
2023-09-16T21:09:52.170Z,23.70
2023-09-16T21:12:19.491Z,23.70
2023-09-16T21:14:46.488Z,23.70
2023-09-16T21:17:13.568Z,23.60
2023-09-16T21:19:40.679Z,23.60
2023-09-16T21:22:07.653Z,23.10
2023-09-16T21:24:34.766Z,23.50
2023-09-16T21:27:01.856Z,23.50
2023-09-16T21:29:29.053Z,23.50
2023-09-16T21:32:01.953Z,23.40
2023-09-16T21:34:30.116Z,23.50
2023-09-16T21:36:59.858Z,23.40
2023-09-16T21:39:27.151Z,23.40
2023-09-16T21:41:54.916Z,23.30
2023-09-16T21:44:22.317Z,23.30
2023-09-16T21:46:49.369Z,23.20
2023-09-16T21:49:16.422Z,23.20
2023-09-16T21:51:43.320Z,23.20
2023-09-16T21:54:10.177Z,23.20
2023-09-16T21:59:53.086Z,22.80
2023-09-16T22:02:20.126Z,23.10
2023-09-16T22:04:47.209Z,23.10
2023-09-16T22:07:14.037Z,23.10
2023-09-16T22:09:40.920Z,23.00
2023-09-16T22:12:07.766Z,23.00
2023-09-16T22:14:34.559Z,22.90
2023-09-16T22:17:01.429Z,22.80
2023-09-16T22:19:28.445Z,22.80
2023-09-16T22:21:55.418Z,23.10
2023-09-16T22:24:22.655Z,22.80
2023-09-16T22:26:49.690Z,22.70
2023-09-16T22:29:16.678Z,22.70
2023-09-16T22:31:43.795Z,22.80
2023-09-16T22:34:12.113Z,22.70
2023-09-16T22:36:39.138Z,22.60
2023-09-16T22:39:06.036Z,22.60
2023-09-16T22:41:33.118Z,22.70
2023-09-16T22:43:59.900Z,22.50
2023-09-16T22:46:27.007Z,22.50
2023-09-16T22:48:54.202Z,22.50
2023-09-16T22:51:21.075Z,22.40
2023-09-16T22:53:48.373Z,22.40
2023-09-16T22:56:15.478Z,22.30
2023-09-16T22:58:43.935Z,22.40
2023-09-16T23:01:12.946Z,22.20
2023-09-16T23:03:40.234Z,22.20
2023-09-16T23:06:07.252Z,22.20
2023-09-16T23:08:34.131Z,22.20
2023-09-16T23:11:01.134Z,22.20
2023-09-16T23:13:27.988Z,22.20
2023-09-16T23:15:57.105Z,22.20
2023-09-16T23:18:24.179Z,22.10
2023-09-16T23:20:58.413Z,22.10
2023-09-16T23:23:26.450Z,22.10
2023-09-16T23:25:55.630Z,22.20
2023-09-16T23:28:22.638Z,22.10
2023-09-16T23:30:49.664Z,22.00
2023-09-16T23:33:17.631Z,22.00
2023-09-16T23:35:44.651Z,21.60
2023-09-16T23:38:14.708Z,22.00
2023-09-16T23:40:42.672Z,22.00
2023-09-16T23:43:09.783Z,21.90
2023-09-16T23:45:37.152Z,21.90
2023-09-16T23:48:07.424Z,21.90
2023-09-16T23:50:34.313Z,21.90
2023-09-16T23:53:01.244Z,21.90
2023-09-16T23:55:28.151Z,21.90
2023-09-16T23:57:55.134Z,21.90
